Pagina principale
METAR-TAF:

METAR-TAF

Aeroporti :

Yap, Micronesia

Aeroporto Internazionale di Yap

latitudine: 09-29N, longitudine: 138-05E, altezza: 28 m

Osservazione

Il bollettino è stato emesso 33 minuti fa, alle 20:50 UTC
Vento 4 kt da direzioni variabili
Temperature 27°C
Umidità 84%
Pressione 1010 hPa
Visibilità: 19.3 km
Poco nuvoloso ad un'altezza di 1600 ft
Nuvoloso ad un'altezza di 30000 ft

METAR: PTYA 242050Z VRB04KT 12SM FEW016 BKN300 27/24 A2982 RMK SLP100 8/101 T02680240 52005

Ora: 07:23 (21:23 UTC)

Previsione

Il bollettino è stato emesso 3 ore e 48 minuti fa, alle 17:35 UTC
Previsione valida dal 24 alle 18 UTC al 25 alle 18 UTC
Vento 5 kt da direzioni variabili
Visibilità: 10 km
Poco nuvoloso ad un'altezza di 1600 ft

TAF: PTYA 241735Z 2418/2518 VRB05KT P6SM FEW016

Osservazioni e previsioni meteorologiche di più di 4000 aeroporti (messaggi METAR e TAF).

Le stazioni disponibili sono rappresentate dai dischi gialli e rossi sulla carta.

Puntare il mouse per vedere il nome della stazione.

Clicca sopra per visualizzare le osservazioni e previsioni meteorologiche.

Per cambiare la mappa : fare clic sui pulsanti verdi con una croce nera per ingrandire, il pulsante verde con un trattino per diminuire, o sulla freccia verde per le mappe adiacenti.


METAR-TAF: